Time;durP1;ratioP1;P1;durP2;ratioP2;P2;SDS_P1;SDS_P2;PMS_P1;PMS_P2;Temp;Humidity;BMP_temperature;BMP_pressure;BME280_temperature;BME280_humidity;BME280_pressure;Samples;Min_cycle;Max_cycle;Signal;HPM_P1;HPM_P2
2022/11/01 00:02:07;;;;;;;15.20;10.37;;;18.20;68.30;;;;;;5070331;28;20470;-91
2022/11/01 00:04:34;;;;;;;13.40;10.27;;;18.20;68.00;;;;;;5078977;28;20451;-92
2022/11/01 00:07:01;;;;;;;15.97;11.07;;;18.20;67.90;;;;;;5046886;28;20466;-90
2022/11/01 00:09:28;;;;;;;17.40;11.20;;;18.30;67.80;;;;;;5084917;28;20845;-91
2022/11/01 00:11:57;;;;;;;16.30;10.73;;;18.30;67.30;;;;;;5067300;28;21026;-91
2022/11/01 00:14:24;;;;;;;14.97;10.27;;;18.10;67.40;;;;;;5057074;28;20491;-91
2022/11/01 00:16:51;;;;;;;13.90;10.53;;;18.00;67.60;;;;;;5073308;28;20522;-91
2022/11/01 00:19:18;;;;;;;10.80;8.90;;;18.00;67.80;;;;;;5055724;28;20497;-91
2022/11/01 00:21:45;;;;;;;13.83;9.77;;;18.10;67.80;;;;;;5060048;28;20472;-90
2022/11/01 00:24:12;;;;;;;14.30;10.00;;;18.10;67.40;;;;;;5077737;28;21179;-91
2022/11/01 00:26:39;;;;;;;18.23;10.17;;;18.10;67.20;;;;;;5092472;28;20475;-92
2022/11/01 00:29:07;;;;;;;15.67;10.13;;;18.10;66.90;;;;;;5084377;28;20542;-91
2022/11/01 00:31:35;;;;;;;18.27;11.33;;;18.00;67.30;;;;;;5083263;27;20430;-92
2022/11/01 00:34:04;;;;;;;14.30;9.83;;;18.00;68.00;;;;;;5071543;27;20451;-92
2022/11/01 00:36:32;;;;;;;17.77;12.10;;;18.00;67.30;;;;;;5099766;27;20462;-91
2022/11/01 00:38:59;;;;;;;12.77;9.67;;;18.10;67.40;;;;;;5101281;27;20961;-91
2022/11/01 00:41:26;;;;;;;16.97;10.57;;;18.10;67.20;;;;;;5083925;28;20470;-89
2022/11/01 00:43:53;;;;;;;16.17;11.13;;;18.10;66.90;;;;;;5099798;27;20436;-91
2022/11/01 00:46:22;;;;;;;18.00;10.57;;;18.10;66.70;;;;;;5067769;28;20950;-91
2022/11/01 00:48:49;;;;;;;18.37;11.90;;;18.10;66.50;;;;;;5088727;28;20833;-91
2022/11/01 00:51:16;;;;;;;15.70;10.37;;;18.00;66.40;;;;;;5087835;28;20446;-91
2022/11/01 00:53:42;;;;;;;15.20;11.57;;;17.90;66.80;;;;;;5071975;28;20463;-90
2022/11/01 00:56:10;;;;;;;15.60;9.90;;;17.90;67.20;;;;;;5091084;28;20542;-91
2022/11/01 00:58:37;;;;;;;12.37;9.13;;;18.00;66.90;;;;;;5088936;28;20471;-91
2022/11/01 01:01:04;;;;;;;14.00;10.33;;;18.00;66.30;;;;;;5099703;27;20471;-91
2022/11/01 01:03:32;;;;;;;21.13;13.33;;;17.80;67.10;;;;;;5082614;28;20463;-91
2022/11/01 01:05:59;;;;;;;14.00;11.67;;;17.90;66.60;;;;;;5086191;28;20448;-90
2022/11/01 01:08:27;;;;;;;16.07;10.73;;;17.70;66.70;;;;;;5080741;28;20467;-90
2022/11/01 01:10:54;;;;;;;17.03;12.03;;;17.60;66.50;;;;;;5086549;28;20446;-91
2022/11/01 01:13:22;;;;;;;20.53;10.57;;;17.60;67.20;;;;;;5077581;28;20530;-91
2022/11/01 01:15:49;;;;;;;13.40;9.87;;;17.60;67.10;;;;;;5083967;27;20442;-91
2022/11/01 01:18:17;;;;;;;15.33;10.40;;;17.70;66.90;;;;;;5089475;27;20454;-91
2022/11/01 01:20:45;;;;;;;14.60;10.90;;;17.50;67.00;;;;;;5084553;28;20466;-89
2022/11/01 01:23:12;;;;;;;13.20;9.67;;;17.50;67.30;;;;;;5094498;27;20443;-91
2022/11/01 01:25:40;;;;;;;18.10;10.63;;;17.50;67.30;;;;;;5081329;27;20448;-91
2022/11/01 01:28:08;;;;;;;17.93;11.80;;;17.40;68.00;;;;;;5082315;27;20465;-91
2022/11/01 01:30:35;;;;;;;16.93;11.60;;;17.60;67.80;;;;;;5062619;28;20520;-91
2022/11/01 01:33:02;;;;;;;14.30;10.90;;;17.70;67.40;;;;;;5067735;28;20439;-92
2022/11/01 01:35:29;;;;;;;17.93;12.33;;;17.80;67.10;;;;;;5071815;28;21031;-91
2022/11/01 01:37:57;;;;;;;13.50;11.40;;;17.90;66.80;;;;;;5076116;28;20456;-91
2022/11/01 01:40:25;;;;;;;15.90;11.40;;;17.90;66.60;;;;;;5096469;27;20527;-91
2022/11/01 01:42:52;;;;;;;16.67;11.33;;;17.90;66.50;;;;;;5080132;28;20953;-91
2022/11/01 01:45:31;;;;;;;12.10;10.40;;;17.90;66.40;;;;;;5079701;28;20817;-90
2022/11/01 01:48:06;;;;;;;17.03;11.60;;;18.00;66.40;;;;;;5069962;28;20506;-89
2022/11/01 01:50:38;;;;;;;17.20;11.57;;;17.90;66.20;;;;;;5101129;27;20526;-91
2022/11/01 01:53:11;;;;;;;14.37;11.37;;;17.90;66.10;;;;;;5086319;27;20456;-90
2022/11/01 01:55:48;;;;;;;16.40;11.90;;;18.00;66.00;;;;;;5098778;28;20442;-91
2022/11/01 01:58:18;;;;;;;13.97;11.80;;;17.90;66.00;;;;;;5096271;27;20842;-90
2022/11/01 02:00:45;;;;;;;14.13;10.93;;;17.90;66.10;;;;;;5078245;28;20534;-91
2022/11/01 02:03:13;;;;;;;16.13;12.20;;;18.00;66.00;;;;;;5100627;27;20456;-90
2022/11/01 02:05:46;;;;;;;15.03;11.33;;;18.00;65.80;;;;;;5068073;28;21532;-90
2022/11/01 02:08:15;;;;;;;19.50;12.83;;;17.90;65.90;;;;;;5071157;27;20493;-91
2022/11/01 02:10:43;;;;;;;19.63;13.40;;;17.90;65.90;;;;;;5097049;27;20465;-91
2022/11/01 02:13:14;;;;;;;23.33;11.93;;;17.90;66.00;;;;;;5069721;27;20450;-90
2022/11/01 02:16:04;;;;;;;17.47;12.73;;;17.80;66.00;;;;;;5079086;28;20462;-91
2022/11/01 02:18:40;;;;;;;34.20;12.23;;;17.60;66.90;;;;;;5092506;27;21120;-90
2022/11/01 02:21:46;;;;;;;19.50;13.00;;;17.40;67.20;;;;;;5094554;27;20474;-91
2022/11/01 02:24:46;;;;;;;18.87;11.80;;;17.10;68.30;;;;;;5016984;27;20479;-91
2022/11/01 02:27:28;;;;;;;18.97;11.00;;;17.20;68.50;;;;;;5093149;27;20530;-91
2022/11/01 02:30:13;;;;;;;16.20;11.23;;;17.20;67.80;;;;;;5086202;27;20430;-90
2022/11/01 02:33:21;;;;;;;16.67;10.90;;;17.00;68.90;;;;;;5095771;27;20538;-91
2022/11/01 02:35:57;;;;;;;17.43;11.40;;;17.20;68.60;;;;;;4988460;28;20455;-90
2022/11/01 02:38:29;;;;;;;16.47;12.03;;;17.30;68.40;;;;;;5016375;28;20486;-88
2022/11/01 02:41:06;;;;;;;17.97;11.50;;;17.40;67.90;;;;;;5052329;27;20447;-91
2022/11/01 02:43:39;;;;;;;18.93;10.70;;;17.40;67.50;;;;;;5080692;28;20447;-91
2022/11/01 02:48:57;;;;;;;16.20;11.17;;;17.30;67.90;;;;;;5095510;28;20475;-91
2022/11/01 02:51:26;;;;;;;14.47;10.60;;;17.30;67.50;;;;;;5083601;28;20435;-91
2022/11/01 02:53:53;;;;;;;15.63;10.33;;;17.30;67.90;;;;;;5065545;28;20491;-90
2022/11/01 02:56:22;;;;;;;24.83;12.20;;;17.30;67.80;;;;;;5095108;28;20823;-90
2022/11/01 02:58:51;;;;;;;17.80;11.70;;;17.30;67.50;;;;;;5098810;27;20463;-91
2022/11/01 03:01:23;;;;;;;16.70;11.07;;;17.40;67.30;;;;;;5086466;28;21021;-91
2022/11/01 03:03:53;;;;;;;17.90;11.43;;;17.50;67.30;;;;;;5082792;28;20464;-91
2022/11/01 03:06:27;;;;;;;15.20;10.83;;;17.20;67.20;;;;;;5082707;28;20454;-91
2022/11/01 03:08:58;;;;;;;17.40;10.23;;;17.20;67.70;;;;;;5094926;27;20485;-91
2022/11/01 03:11:33;;;;;;;16.53;11.33;;;17.20;67.20;;;;;;5094723;28;20810;-90
2022/11/01 03:14:07;;;;;;;12.50;9.47;;;17.20;67.60;;;;;;5091761;27;20446;-90
2022/11/01 03:16:36;;;;;;;16.40;10.60;;;17.00;68.20;;;;;;5076302;28;20440;-91
2022/11/01 03:19:28;;;;;;;10.90;9.03;;;17.10;68.10;;;;;;5080285;27;20627;-91
2022/11/01 03:22:02;;;;;;;12.67;9.97;;;17.30;67.60;;;;;;5070018;28;20476;-91
2022/11/01 03:24:33;;;;;;;12.93;9.70;;;17.30;67.30;;;;;;5095519;28;20985;-91
2022/11/01 03:27:04;;;;;;;13.80;9.80;;;17.40;66.90;;;;;;5097995;27;20457;-91
2022/11/01 03:29:33;;;;;;;13.60;10.17;;;17.40;66.50;;;;;;5096880;28;20550;-89
2022/11/01 03:32:02;;;;;;;15.30;9.40;;;17.40;66.90;;;;;;5094914;28;20481;-90
2022/11/01 03:34:31;;;;;;;13.50;10.10;;;17.40;66.70;;;;;;5093670;27;20435;-90
2022/11/01 03:37:03;;;;;;;12.33;8.60;;;17.50;66.30;;;;;;5096941;27;20457;-91
2022/11/01 03:39:35;;;;;;;9.90;8.87;;;17.40;66.70;;;;;;5096596;27;20567;-89
2022/11/01 03:42:05;;;;;;;12.90;10.40;;;17.50;66.80;;;;;;5093963;27;21011;-90
2022/11/01 03:44:36;;;;;;;13.83;11.57;;;17.60;66.70;;;;;;5079558;28;20835;-89
2022/11/01 03:47:03;;;;;;;14.63;11.67;;;17.60;66.30;;;;;;5063976;28;20451;-89
2022/11/01 03:49:30;;;;;;;16.77;11.63;;;17.50;66.30;;;;;;5080659;28;21170;-90
2022/11/01 03:51:57;;;;;;;15.60;11.13;;;17.40;66.70;;;;;;5095790;27;20445;-90
2022/11/01 03:54:27;;;;;;;13.00;9.80;;;17.60;66.70;;;;;;5100869;28;20458;-90
2022/11/01 03:56:54;;;;;;;14.17;10.40;;;17.70;66.60;;;;;;5079247;28;20799;-91
2022/11/01 03:59:23;;;;;;;15.03;10.13;;;17.60;66.40;;;;;;5094899;27;20471;-91
2022/11/01 04:01:50;;;;;;;20.43;11.60;;;17.60;66.60;;;;;;5077275;28;20467;-91
2022/11/01 04:04:17;;;;;;;16.50;12.30;;;17.50;66.60;;;;;;5094190;28;20444;-90
2022/11/01 04:06:44;;;;;;;21.57;12.40;;;17.50;66.80;;;;;;5094701;28;20471;-89
2022/11/01 04:09:11;;;;;;;18.10;10.80;;;17.60;66.80;;;;;;5073767;28;20485;-90
2022/11/01 04:11:39;;;;;;;17.90;12.33;;;17.50;67.00;;;;;;5066047;28;20481;-91
2022/11/01 04:22:19;;;;;;;22.07;12.27;;;17.60;66.90;;;;;;5092137;28;20479;-90
2022/11/01 04:24:46;;;;;;;23.33;12.20;;;17.70;66.70;;;;;;5083118;28;20529;-90
2022/11/01 04:27:15;;;;;;;20.93;13.37;;;17.40;67.30;;;;;;5083450;28;20453;-91
2022/11/01 04:29:42;;;;;;;24.30;15.37;;;17.40;67.50;;;;;;5075247;28;21220;-90
2022/11/01 04:32:08;;;;;;;18.33;13.00;;;17.20;68.10;;;;;;5091640;28;21149;-91
2022/11/01 04:34:44;;;;;;;18.10;12.80;;;17.10;68.70;;;;;;5075640;28;20448;-90
2022/11/01 04:37:12;;;;;;;20.83;14.20;;;17.20;68.40;;;;;;5075675;28;20475;-90
2022/11/01 04:39:39;;;;;;;38.90;14.97;;;17.20;68.40;;;;;;5092267;28;20481;-89
2022/11/01 04:42:06;;;;;;;18.73;12.87;;;17.00;68.60;;;;;;5074667;28;20463;-92
2022/11/01 04:44:35;;;;;;;21.80;14.60;;;17.00;69.10;;;;;;5083918;28;20455;-90
2022/11/01 04:47:02;;;;;;;19.67;14.40;;;17.00;69.40;;;;;;5075935;28;20447;-91
2022/11/01 04:49:29;;;;;;;21.30;14.20;;;17.10;69.00;;;;;;5089109;28;20559;-90
2022/11/01 04:51:56;;;;;;;16.90;12.20;;;17.20;69.30;;;;;;5113518;27;20476;-91
2022/11/01 04:54:23;;;;;;;15.97;11.87;;;17.30;68.70;;;;;;5061381;28;20447;-91
2022/11/01 04:56:50;;;;;;;20.00;12.23;;;17.50;68.10;;;;;;5080486;28;20455;-91
2022/11/01 04:59:17;;;;;;;131.87;57.03;;;17.60;67.70;;;;;;5101871;28;20487;-90
2022/11/01 05:01:45;;;;;;;68.63;35.40;;;17.70;67.30;;;;;;5085313;28;20481;-92
2022/11/01 05:04:12;;;;;;;82.63;39.30;;;17.80;67.10;;;;;;5093976;28;20558;-90
2022/11/01 05:06:39;;;;;;;46.80;25.80;;;17.80;66.80;;;;;;5079336;28;20479;-91
2022/11/01 05:09:06;;;;;;;35.20;19.40;;;17.80;66.70;;;;;;5066736;28;20466;-92
2022/11/01 05:11:34;;;;;;;30.80;18.20;;;17.80;66.50;;;;;;5098770;28;20447;-91
2022/11/01 05:14:01;;;;;;;24.60;13.27;;;17.90;66.40;;;;;;5078609;28;21006;-91
2022/11/01 05:16:28;;;;;;;18.23;13.00;;;17.80;66.40;;;;;;5093282;28;20538;-91
2022/11/01 05:18:56;;;;;;;19.40;13.20;;;17.80;66.50;;;;;;5098165;27;20524;-90
2022/11/01 05:21:23;;;;;;;17.07;12.57;;;17.70;67.00;;;;;;5062174;27;20455;-91
2022/11/01 05:23:50;;;;;;;23.43;14.60;;;17.70;67.00;;;;;;5105621;27;20475;-91
2022/11/01 05:26:17;;;;;;;38.90;23.70;;;17.80;66.80;;;;;;5098439;27;20482;-89
2022/11/01 05:28:44;;;;;;;38.13;22.80;;;17.80;66.70;;;;;;5098110;27;20471;-90
2022/11/01 05:31:11;;;;;;;26.23;15.93;;;17.70;67.00;;;;;;5099379;27;21032;-90
2022/11/01 05:33:38;;;;;;;23.67;15.83;;;17.80;66.90;;;;;;5101432;27;20797;-91
2022/11/01 05:36:08;;;;;;;25.40;15.63;;;17.50;67.30;;;;;;5077292;28;20524;-90
2022/11/01 05:38:35;;;;;;;33.40;20.13;;;17.50;67.50;;;;;;5068953;28;20471;-91
2022/11/01 05:41:02;;;;;;;34.10;20.37;;;17.60;67.50;;;;;;5088901;28;20444;-92
2022/11/01 05:43:29;;;;;;;35.80;21.13;;;17.70;67.20;;;;;;5078539;28;20467;-91
2022/11/01 05:45:56;;;;;;;28.83;20.43;;;17.70;66.80;;;;;;5106229;27;20452;-91
2022/11/01 05:48:23;;;;;;;27.90;18.20;;;17.70;66.80;;;;;;5068200;28;20493;-90
2022/11/01 05:50:50;;;;;;;35.60;23.47;;;17.80;66.80;;;;;;5081420;28;20962;-89
2022/11/01 05:53:19;;;;;;;29.90;14.87;;;17.70;66.80;;;;;;5105944;28;20447;-91
2022/11/01 05:55:46;;;;;;;22.63;14.90;;;17.40;68.10;;;;;;5086531;28;20551;-91
2022/11/01 05:58:13;;;;;;;29.23;17.30;;;17.40;68.20;;;;;;5098809;27;20513;-91
2022/11/01 06:00:40;;;;;;;26.17;16.30;;;17.50;68.00;;;;;;5062623;27;20466;-91
2022/11/01 06:03:07;;;;;;;19.47;13.93;;;17.50;68.10;;;;;;5094229;28;20471;-91
2022/11/01 06:05:35;;;;;;;17.50;13.47;;;17.30;68.40;;;;;;5080272;27;20463;-92
2022/11/01 06:08:03;;;;;;;15.43;11.20;;;17.20;69.30;;;;;;5083326;27;20885;-93
2022/11/01 06:10:31;;;;;;;15.70;11.60;;;17.10;69.20;;;;;;5086046;28;20444;-92
2022/11/01 06:12:59;;;;;;;15.17;11.73;;;17.20;68.90;;;;;;5089427;27;21162;-91
2022/11/01 06:15:26;;;;;;;21.10;13.23;;;17.20;68.40;;;;;;5073005;28;20525;-89
2022/11/01 06:17:56;;;;;;;27.60;18.10;;;17.20;68.70;;;;;;5086585;28;20456;-91
2022/11/01 06:20:23;;;;;;;31.63;21.60;;;17.20;69.30;;;;;;5094196;28;20482;-89
2022/11/01 06:22:50;;;;;;;40.40;29.10;;;17.30;69.10;;;;;;5097545;27;20479;-90
2022/11/01 06:25:18;;;;;;;19.27;13.23;;;17.50;68.80;;;;;;5100446;27;21200;-90
2022/11/01 06:27:46;;;;;;;17.50;13.20;;;17.40;68.40;;;;;;5078248;28;20586;-92
2022/11/01 06:30:13;;;;;;;17.10;12.67;;;17.50;68.60;;;;;;5092902;27;20879;-90
2022/11/01 06:32:40;;;;;;;14.60;11.23;;;17.30;69.00;;;;;;5081697;28;20544;-93
2022/11/01 06:35:09;;;;;;;19.27;13.27;;;17.10;70.50;;;;;;5069218;28;20463;-92
2022/11/01 06:37:36;;;;;;;21.43;13.50;;;17.10;71.80;;;;;;5080465;28;20462;-91
2022/11/01 06:40:04;;;;;;;21.70;13.30;;;17.10;72.60;;;;;;5064376;28;20483;-91
2022/11/01 06:42:31;;;;;;;17.67;12.60;;;17.30;72.00;;;;;;5079729;27;20566;-90
2022/11/01 06:44:59;;;;;;;18.70;13.53;;;17.30;70.60;;;;;;5055870;28;20486;-91
2022/11/01 06:47:26;;;;;;;14.70;12.20;;;17.50;70.20;;;;;;5082808;28;20493;-91
2022/11/01 06:49:53;;;;;;;18.27;13.03;;;17.60;69.70;;;;;;5078132;27;20528;-92
2022/11/01 06:52:20;;;;;;;21.07;15.30;;;17.70;68.90;;;;;;5091111;27;21037;-91
2022/11/01 06:54:47;;;;;;;18.23;13.90;;;17.60;69.00;;;;;;5065676;28;20455;-91
2022/11/01 06:57:15;;;;;;;62.80;30.80;;;17.60;69.00;;;;;;5088551;28;20481;-90
2022/11/01 06:59:42;;;;;;;27.97;18.23;;;17.40;68.90;;;;;;5094704;27;20476;-94
2022/11/01 07:02:10;;;;;;;70.70;38.17;;;17.40;69.50;;;;;;5094319;27;20451;-91
2022/11/01 07:04:37;;;;;;;55.07;34.40;;;17.40;69.70;;;;;;5095108;27;20571;-93
2022/11/01 07:07:05;;;;;;;73.77;44.30;;;17.50;69.80;;;;;;5064031;27;20522;-90
2022/11/01 07:09:32;;;;;;;58.10;38.83;;;17.60;69.30;;;;;;5078753;28;21169;-92
2022/11/01 07:11:59;;;;;;;46.90;28.93;;;17.70;69.00;;;;;;5077531;28;20499;-92
2022/11/01 07:14:26;;;;;;;44.10;29.60;;;17.70;69.00;;;;;;5075942;28;20483;-92
2022/11/01 07:16:53;;;;;;;39.60;23.57;;;17.70;69.10;;;;;;5077144;28;20482;-92
2022/11/01 07:19:22;;;;;;;51.77;41.43;;;17.70;69.00;;;;;;5058729;28;20553;-91
2022/11/01 07:21:49;;;;;;;24.70;16.10;;;17.40;69.80;;;;;;5088137;27;20943;-92
2022/11/01 07:24:16;;;;;;;20.93;17.63;;;17.20;70.40;;;;;;5098510;28;20536;-91
2022/11/01 07:26:43;;;;;;;27.10;22.03;;;17.40;70.10;;;;;;5078001;28;20443;-90
2022/11/01 07:29:10;;;;;;;22.37;17.20;;;17.50;70.10;;;;;;5078713;28;20511;-93
2022/11/01 07:31:38;;;;;;;17.03;12.43;;;17.50;69.70;;;;;;5086955;28;20975;-92
2022/11/01 07:34:05;;;;;;;16.10;10.60;;;17.50;71.40;;;;;;5065933;28;20443;-93
2022/11/01 07:36:34;;;;;;;17.87;10.07;;;17.50;72.00;;;;;;5064200;28;20744;-93
2022/11/01 07:39:01;;;;;;;16.00;10.37;;;17.70;71.70;;;;;;5084420;28;20586;-94
2022/11/01 07:41:28;;;;;;;16.83;11.73;;;17.70;71.60;;;;;;5075299;28;20527;-95
2022/11/01 07:43:55;;;;;;;18.60;12.20;;;17.90;71.70;;;;;;5083454;28;20499;-91
2022/11/01 07:46:22;;;;;;;19.20;14.30;;;18.00;71.10;;;;;;5084029;28;20474;-90
2022/11/01 07:48:50;;;;;;;27.83;20.27;;;18.00;70.70;;;;;;5091564;27;20463;-92
2022/11/01 07:51:17;;;;;;;25.97;18.60;;;18.00;71.00;;;;;;5069627;28;21005;-92
2022/11/01 07:53:45;;;;;;;22.87;19.40;;;18.10;70.90;;;;;;5090811;27;20596;-92
2022/11/01 07:56:12;;;;;;;23.70;18.10;;;18.20;70.50;;;;;;5060724;28;20547;-92
2022/11/01 07:58:42;;;;;;;28.37;20.93;;;18.20;71.50;;;;;;5083659;28;20458;-91
2022/11/01 08:01:10;;;;;;;44.17;32.70;;;18.30;71.90;;;;;;5068661;28;20427;-91
2022/11/01 08:03:37;;;;;;;26.70;20.90;;;18.40;71.60;;;;;;5075822;28;20459;-91
2022/11/01 08:06:04;;;;;;;20.27;15.00;;;18.40;71.60;;;;;;5078985;28;20459;-92
2022/11/01 08:08:31;;;;;;;15.10;12.20;;;18.40;71.70;;;;;;5066968;28;21204;-92
2022/11/01 08:11:01;;;;;;;14.77;11.13;;;18.30;71.80;;;;;;5072869;28;20465;-91
2022/11/01 08:13:28;;;;;;;9.80;7.90;;;18.40;72.30;;;;;;5095233;28;20449;-91
2022/11/01 08:15:56;;;;;;;15.60;7.90;;;18.40;72.00;;;;;;5102744;28;20453;-91
2022/11/01 08:18:24;;;;;;;10.17;7.97;;;18.60;71.00;;;;;;5072340;28;20463;-92
2022/11/01 08:20:51;;;;;;;10.87;7.43;;;18.60;70.90;;;;;;5095453;28;20987;-91
2022/11/01 08:23:18;;;;;;;15.13;11.10;;;18.60;71.00;;;;;;5061235;28;20805;-91
2022/11/01 08:25:45;;;;;;;8.47;7.20;;;18.60;71.30;;;;;;5078158;28;20461;-91
2022/11/01 08:28:16;;;;;;;7.23;6.03;;;18.60;71.60;;;;;;5074234;28;20474;-92
2022/11/01 08:30:44;;;;;;;7.57;6.50;;;18.70;72.00;;;;;;5097091;28;21172;-91
2022/11/01 08:33:12;;;;;;;8.37;6.80;;;18.70;71.00;;;;;;5057048;28;21026;-91
2022/11/01 08:35:39;;;;;;;5.33;4.77;;;18.70;71.10;;;;;;5090875;28;20446;-91
2022/11/01 08:38:06;;;;;;;5.47;4.70;;;18.60;71.50;;;;;;5079624;28;20470;-91
2022/11/01 08:40:36;;;;;;;7.50;5.80;;;18.70;71.70;;;;;;5045016;28;20446;-91
2022/11/01 08:43:03;;;;;;;8.07;7.27;;;18.80;71.70;;;;;;5068285;28;20480;-92
2022/11/01 08:45:32;;;;;;;6.50;5.20;;;18.90;70.90;;;;;;5061528;28;21016;-91
2022/11/01 08:47:59;;;;;;;6.10;5.50;;;18.90;71.30;;;;;;5048119;28;20794;-92
2022/11/01 08:50:27;;;;;;;6.30;5.70;;;19.00;70.70;;;;;;5058094;28;20579;-90
2022/11/01 08:52:55;;;;;;;11.10;6.60;;;19.10;70.30;;;;;;5056363;27;20446;-92
2022/11/01 08:55:22;;;;;;;11.17;7.20;;;19.10;70.40;;;;;;5063394;28;20542;-91
2022/11/01 08:57:49;;;;;;;9.33;8.03;;;19.20;70.10;;;;;;5099323;27;20505;-91
2022/11/01 09:00:17;;;;;;;6.27;5.63;;;19.40;69.90;;;;;;5082062;28;20812;-91
2022/11/01 09:02:46;;;;;;;14.17;5.43;;;19.30;69.00;;;;;;5096934;27;20486;-93
2022/11/01 09:05:13;;;;;;;8.30;4.53;;;19.40;69.10;;;;;;5051344;28;20552;-92
2022/11/01 09:07:40;;;;;;;4.83;3.70;;;19.40;68.10;;;;;;5069953;27;20450;-91
2022/11/01 09:10:08;;;;;;;5.87;4.00;;;19.50;68.30;;;;;;5078771;27;20452;-91
2022/11/01 09:12:35;;;;;;;7.47;5.50;;;19.50;68.30;;;;;;5062043;28;20460;-90
2022/11/01 09:15:02;;;;;;;9.80;5.90;;;19.50;68.50;;;;;;5060752;28;20439;-89
2022/11/01 09:17:30;;;;;;;7.40;4.10;;;19.50;68.50;;;;;;5044610;27;20463;-90
2022/11/01 09:19:58;;;;;;;5.63;4.73;;;19.50;68.20;;;;;;5063537;27;20697;-91
2022/11/01 09:22:26;;;;;;;7.67;5.93;;;19.60;68.50;;;;;;5059166;28;20880;-91
2022/11/01 09:24:54;;;;;;;10.43;5.70;;;19.40;69.30;;;;;;5069899;27;20479;-91
2022/11/01 09:27:21;;;;;;;7.67;5.47;;;19.40;69.40;;;;;;5042206;28;20814;-92
2022/11/01 09:29:48;;;;;;;5.33;4.13;;;19.50;69.90;;;;;;5063445;27;20455;-90
2022/11/01 09:32:15;;;;;;;5.57;4.40;;;19.50;69.50;;;;;;5060379;28;20489;-92
2022/11/01 09:34:42;;;;;;;6.30;4.20;;;19.60;69.40;;;;;;5065265;28;20453;-91
2022/11/01 09:37:11;;;;;;;6.00;3.57;;;19.40;69.70;;;;;;5070993;28;20562;-90
2022/11/01 09:39:38;;;;;;;5.43;3.33;;;19.40;69.60;;;;;;5092310;27;20550;-91
2022/11/01 09:42:10;;;;;;;6.47;4.40;;;19.30;69.30;;;;;;5046657;27;20455;-92
2022/11/01 09:44:41;;;;;;;7.37;4.80;;;19.50;69.30;;;;;;5045559;27;20478;-92
2022/11/01 09:47:14;;;;;;;6.60;4.20;;;19.70;69.70;;;;;;5047500;28;20993;-91
2022/11/01 09:49:45;;;;;;;3.53;3.23;;;19.70;69.50;;;;;;5066210;28;21166;-90
2022/11/01 09:52:19;;;;;;;4.90;2.90;;;19.70;68.80;;;;;;5078929;28;20505;-92
2022/11/01 09:54:47;;;;;;;6.73;4.50;;;19.60;69.20;;;;;;5051587;27;20456;-93
2022/11/01 09:57:20;;;;;;;3.83;2.80;;;19.60;69.70;;;;;;5051263;28;20819;-92
2022/11/01 09:59:59;;;;;;;8.63;2.73;;;19.60;68.50;;;;;;5092658;27;20514;-89
2022/11/01 10:02:58;;;;;;;4.67;2.67;;;19.60;68.00;;;;;;5072383;28;20977;-93
2022/11/01 10:05:47;;;;;;;4.93;3.20;;;19.90;68.00;;;;;;5038772;28;20561;-91
2022/11/01 10:08:37;;;;;;;3.33;2.40;;;19.70;68.60;;;;;;5065240;28;20576;-90
2022/11/01 10:11:23;;;;;;;6.50;2.23;;;19.70;67.00;;;;;;5065042;28;20867;-92
2022/11/01 10:14:05;;;;;;;4.20;2.53;;;19.50;66.90;;;;;;5051254;27;20472;-91
2022/11/01 10:16:36;;;;;;;8.33;3.50;;;19.50;68.00;;;;;;5090783;28;21018;-92
2022/11/01 10:19:10;;;;;;;22.63;14.70;;;19.50;67.30;;;;;;5079071;28;20471;-91
2022/11/01 10:21:43;;;;;;;8.67;4.63;;;19.60;67.50;;;;;;5063643;28;20551;-90
2022/11/01 10:24:21;;;;;;;6.70;4.90;;;19.70;67.20;;;;;;5057666;28;20850;-90
2022/11/01 10:26:53;;;;;;;6.47;4.07;;;19.60;67.10;;;;;;5065408;28;20442;-89
2022/11/01 10:29:28;;;;;;;6.93;3.63;;;19.60;67.30;;;;;;5072791;27;20490;-90
2022/11/01 10:31:56;;;;;;;5.70;2.53;;;19.70;66.50;;;;;;5047782;28;20447;-90
2022/11/01 10:34:25;;;;;;;3.03;2.60;;;19.90;66.90;;;;;;5047013;28;20451;-90
2022/11/01 10:36:59;;;;;;;4.57;2.73;;;19.90;66.10;;;;;;5060954;27;20469;-91
2022/11/01 10:39:35;;;;;;;3.53;2.67;;;20.00;65.70;;;;;;5070434;27;20562;-90
2022/11/01 10:42:09;;;;;;;3.10;2.03;;;20.10;65.30;;;;;;5064738;27;20446;-90
2022/11/01 10:44:41;;;;;;;3.13;1.90;;;20.20;65.30;;;;;;5054708;27;20570;-90
2022/11/01 10:47:15;;;;;;;2.67;2.03;;;20.30;65.00;;;;;;5089870;27;20604;-89
2022/11/01 10:49:47;;;;;;;2.13;1.93;;;20.30;64.50;;;;;;5072767;28;20544;-89
2022/11/01 10:52:19;;;;;;;2.97;2.67;;;20.40;64.80;;;;;;5054245;27;20472;-90
2022/11/01 10:54:50;;;;;;;7.33;2.90;;;20.40;64.50;;;;;;5042402;28;20999;-90
2022/11/01 10:57:26;;;;;;;4.00;2.50;;;20.70;64.20;;;;;;5047462;28;20898;-90
2022/11/01 10:59:55;;;;;;;3.03;2.73;;;20.80;63.90;;;;;;5093527;27;20521;-91
2022/11/01 11:02:27;;;;;;;2.70;2.00;;;20.70;63.90;;;;;;5073298;28;20798;-89
2022/11/01 11:04:55;;;;;;;3.17;2.63;;;20.60;64.00;;;;;;5073778;28;20460;-91
2022/11/01 11:07:31;;;;;;;3.90;2.67;;;20.60;64.00;;;;;;5071572;27;20473;-89
2022/11/01 11:10:01;;;;;;;7.27;2.70;;;20.50;64.10;;;;;;5064959;28;20458;-90
2022/11/01 11:12:30;;;;;;;5.60;2.90;;;20.60;64.20;;;;;;5079181;28;20448;-91
2022/11/01 11:15:02;;;;;;;10.17;2.87;;;20.50;63.90;;;;;;5055009;28;20443;-89
2022/11/01 11:17:35;;;;;;;4.13;1.80;;;20.50;64.70;;;;;;5073932;28;20465;-88
2022/11/01 11:20:04;;;;;;;5.80;2.90;;;20.00;63.50;;;;;;5059245;28;20447;-90
2022/11/01 11:22:35;;;;;;;4.03;2.40;;;19.60;63.20;;;;;;5073433;28;20451;-90
2022/11/01 11:25:04;;;;;;;2.93;1.90;;;19.30;65.20;;;;;;5059269;28;20464;-89
2022/11/01 11:27:33;;;;;;;5.73;3.57;;;19.10;66.70;;;;;;5075146;28;20454;-90
2022/11/01 11:30:04;;;;;;;4.43;2.97;;;19.20;68.00;;;;;;5060973;28;20534;-90
2022/11/01 11:32:33;;;;;;;7.83;2.13;;;19.10;66.30;;;;;;5059068;28;20454;-89
2022/11/01 11:35:03;;;;;;;3.03;2.70;;;19.00;65.20;;;;;;5075121;28;20676;-91
2022/11/01 11:37:33;;;;;;;4.67;2.13;;;19.10;64.30;;;;;;5075776;28;20451;-89
2022/11/01 11:40:18;;;;;;;13.47;6.80;;;19.10;63.10;;;;;;5077038;28;20893;-90
2022/11/01 11:42:47;;;;;;;3.07;2.67;;;18.80;63.40;;;;;;5068678;28;20447;-91
2022/11/01 11:45:28;;;;;;;3.83;2.77;;;18.70;62.20;;;;;;5081308;27;20475;-92
2022/11/01 11:47:56;;;;;;;8.53;2.70;;;18.70;63.20;;;;;;5059606;28;20463;-91
2022/11/01 11:50:31;;;;;;;10.13;5.50;;;18.40;62.30;;;;;;5066372;28;20509;-90
2022/11/01 11:53:01;;;;;;;9.10;4.17;;;18.50;61.40;;;;;;5093099;28;20446;-91
2022/11/01 11:55:37;;;;;;;5.73;3.10;;;18.60;62.10;;;;;;5055839;28;20494;-90
2022/11/01 11:58:05;;;;;;;5.70;2.50;;;18.60;61.70;;;;;;5065961;28;20502;-91
2022/11/01 12:00:36;;;;;;;4.80;2.37;;;18.70;60.90;;;;;;5081862;28;20487;-90
2022/11/01 12:03:06;;;;;;;11.40;4.43;;;18.80;60.30;;;;;;5066562;28;20452;-91
2022/11/01 12:05:34;;;;;;;8.53;4.87;;;19.10;59.40;;;;;;5081212;28;20568;-90
2022/11/01 12:08:01;;;;;;;10.80;4.97;;;19.30;58.90;;;;;;5057087;28;21005;-91
2022/11/01 12:10:32;;;;;;;9.87;5.07;;;19.40;58.80;;;;;;5073693;28;21526;-91
2022/11/01 12:13:00;;;;;;;20.03;7.10;;;19.40;58.60;;;;;;5058493;28;20465;-90
2022/11/01 12:15:29;;;;;;;27.07;13.37;;;19.50;58.00;;;;;;5072624;28;20446;-90
2022/11/01 12:17:57;;;;;;;4.80;3.07;;;19.70;57.60;;;;;;5083824;28;21195;-90
2022/11/01 12:20:26;;;;;;;19.07;6.90;;;19.80;56.30;;;;;;5094351;28;20454;-91
2022/11/01 12:23:05;;;;;;;18.30;7.97;;;20.10;56.50;;;;;;5065835;28;20447;-91
2022/11/01 12:25:36;;;;;;;17.60;7.27;;;20.30;56.60;;;;;;5062727;28;20504;-89
2022/11/01 12:28:12;;;;;;;6.20;2.50;;;20.30;54.50;;;;;;5049867;27;20511;-90
2022/11/01 12:30:41;;;;;;;15.77;8.10;;;20.50;54.90;;;;;;5075592;28;21221;-91
2022/11/01 12:33:24;;;;;;;40.80;15.43;;;21.00;54.20;;;;;;5061253;28;20439;-91
2022/11/01 12:35:54;;;;;;;47.53;19.83;;;21.00;54.20;;;;;;5040925;28;20523;-91
2022/11/01 12:38:37;;;;;;;17.63;8.63;;;20.90;53.40;;;;;;5091416;27;20791;-91
2022/11/01 12:41:21;;;;;;;13.83;6.50;;;21.20;53.30;;;;;;5076247;27;20805;-91
2022/11/01 12:43:58;;;;;;;46.00;19.23;;;21.40;53.50;;;;;;5075736;28;20485;-91
2022/11/01 12:46:32;;;;;;;48.37;24.37;;;21.60;53.40;;;;;;5064321;27;20453;-90
2022/11/01 12:49:05;;;;;;;5.97;2.57;;;21.80;53.00;;;;;;5086546;27;20470;-90
2022/11/01 12:51:37;;;;;;;5.20;4.20;;;22.00;52.10;;;;;;5076332;28;20457;-89
2022/11/01 12:54:08;;;;;;;4.40;3.40;;;22.10;53.00;;;;;;5060818;28;20458;-90
2022/11/01 12:56:36;;;;;;;2.00;1.73;;;22.00;51.30;;;;;;5052995;27;21350;-89
2022/11/01 12:59:04;;;;;;;8.03;2.10;;;22.20;53.00;;;;;;5075454;28;20548;-88